sensor_id;sensor_type;location;lat;lon;timestamp;P1;durP1;ratioP1;P2;durP2;ratioP2
11189;SDS011;5651;50.926;4.718;2022-09-16T00:00:42;6.55;;;1.95;;
11189;SDS011;5651;50.926;4.718;2022-09-16T00:03:09;8.25;;;2.30;;
11189;SDS011;5651;50.926;4.718;2022-09-16T00:05:40;4.15;;;1.40;;
11189;SDS011;5651;50.926;4.718;2022-09-16T00:08:09;8.25;;;2.40;;
11189;SDS011;5651;50.926;4.718;2022-09-16T00:10:36;4.32;;;1.40;;
11189;SDS011;5651;50.926;4.718;2022-09-16T00:13:02;4.55;;;1.65;;
11189;SDS011;5651;50.926;4.718;2022-09-16T00:15:29;3.38;;;1.60;;
11189;SDS011;5651;50.926;4.718;2022-09-16T00:17:54;10.65;;;1.88;;
11189;SDS011;5651;50.926;4.718;2022-09-16T00:20:20;5.93;;;1.40;;
11189;SDS011;5651;50.926;4.718;2022-09-16T00:22:46;6.10;;;1.73;;
11189;SDS011;5651;50.926;4.718;2022-09-16T00:25:12;6.35;;;1.80;;
11189;SDS011;5651;50.926;4.718;2022-09-16T00:27:37;4.85;;;1.52;;
11189;SDS011;5651;50.926;4.718;2022-09-16T00:30:03;5.60;;;1.67;;
11189;SDS011;5651;50.926;4.718;2022-09-16T00:32:29;7.07;;;1.55;;
11189;SDS011;5651;50.926;4.718;2022-09-16T00:34:55;5.78;;;2.00;;
11189;SDS011;5651;50.926;4.718;2022-09-16T00:37:21;5.75;;;1.70;;
11189;SDS011;5651;50.926;4.718;2022-09-16T00:39:49;6.97;;;2.10;;
11189;SDS011;5651;50.926;4.718;2022-09-16T00:42:16;4.82;;;1.90;;
11189;SDS011;5651;50.926;4.718;2022-09-16T00:47:33;4.47;;;1.90;;
11189;SDS011;5651;50.926;4.718;2022-09-16T00:50:07;4.25;;;1.70;;
11189;SDS011;5651;50.926;4.718;2022-09-16T00:52:34;5.60;;;2.08;;
11189;SDS011;5651;50.926;4.718;2022-09-16T00:55:01;7.55;;;1.90;;
11189;SDS011;5651;50.926;4.718;2022-09-16T00:57:30;5.82;;;1.90;;
11189;SDS011;5651;50.926;4.718;2022-09-16T00:59:57;6.07;;;1.70;;
11189;SDS011;5651;50.926;4.718;2022-09-16T01:02:24;3.13;;;1.50;;
11189;SDS011;5651;50.926;4.718;2022-09-16T01:04:53;8.07;;;2.20;;
11189;SDS011;5651;50.926;4.718;2022-09-16T01:07:36;6.00;;;2.28;;
11189;SDS011;5651;50.926;4.718;2022-09-16T01:10:06;3.95;;;1.90;;
11189;SDS011;5651;50.926;4.718;2022-09-16T01:12:33;6.55;;;1.75;;
11189;SDS011;5651;50.926;4.718;2022-09-16T01:15:00;6.25;;;1.60;;
11189;SDS011;5651;50.926;4.718;2022-09-16T01:17:36;4.75;;;1.75;;
11189;SDS011;5651;50.926;4.718;2022-09-16T01:23:00;9.40;;;2.40;;
11189;SDS011;5651;50.926;4.718;2022-09-16T01:31:32;4.88;;;1.80;;
11189;SDS011;5651;50.926;4.718;2022-09-16T01:56:05;6.10;;;2.08;;
11189;SDS011;5651;50.926;4.718;2022-09-16T02:01:20;4.18;;;1.98;;
11189;SDS011;5651;50.926;4.718;2022-09-16T02:03:58;8.93;;;2.10;;
11189;SDS011;5651;50.926;4.718;2022-09-16T02:06:28;8.07;;;2.40;;
11189;SDS011;5651;50.926;4.718;2022-09-16T02:09:03;9.15;;;4.05;;
11189;SDS011;5651;50.926;4.718;2022-09-16T02:11:34;8.43;;;2.03;;
11189;SDS011;5651;50.926;4.718;2022-09-16T02:14:09;9.32;;;3.80;;
11189;SDS011;5651;50.926;4.718;2022-09-16T02:19:16;9.25;;;2.38;;
11189;SDS011;5651;50.926;4.718;2022-09-16T02:21:46;5.50;;;2.35;;
11189;SDS011;5651;50.926;4.718;2022-09-16T02:24:15;7.53;;;2.53;;
11189;SDS011;5651;50.926;4.718;2022-09-16T02:27:04;9.15;;;2.42;;
11189;SDS011;5651;50.926;4.718;2022-09-16T02:29:36;7.55;;;2.20;;
11189;SDS011;5651;50.926;4.718;2022-09-16T02:32:21;5.13;;;2.03;;
11189;SDS011;5651;50.926;4.718;2022-09-16T02:34:51;5.05;;;1.70;;
11189;SDS011;5651;50.926;4.718;2022-09-16T02:37:21;3.75;;;1.73;;
11189;SDS011;5651;50.926;4.718;2022-09-16T02:39:54;13.60;;;2.30;;
11189;SDS011;5651;50.926;4.718;2022-09-16T02:42:27;5.18;;;1.98;;
11189;SDS011;5651;50.926;4.718;2022-09-16T02:44:54;7.05;;;1.60;;
11189;SDS011;5651;50.926;4.718;2022-09-16T02:52:43;4.00;;;1.63;;
11189;SDS011;5651;50.926;4.718;2022-09-16T02:57:48;5.68;;;1.77;;
11189;SDS011;5651;50.926;4.718;2022-09-16T03:00:15;9.40;;;2.03;;
11189;SDS011;5651;50.926;4.718;2022-09-16T03:02:41;6.10;;;1.67;;
11189;SDS011;5651;50.926;4.718;2022-09-16T03:05:07;4.13;;;1.35;;
11189;SDS011;5651;50.926;4.718;2022-09-16T03:07:34;3.70;;;1.20;;
11189;SDS011;5651;50.926;4.718;2022-09-16T03:10:01;8.70;;;2.17;;
11189;SDS011;5651;50.926;4.718;2022-09-16T03:20:21;4.95;;;1.50;;
11189;SDS011;5651;50.926;4.718;2022-09-16T03:23:19;7.72;;;2.10;;
11189;SDS011;5651;50.926;4.718;2022-09-16T03:25:59;7.15;;;1.88;;
11189;SDS011;5651;50.926;4.718;2022-09-16T03:28:53;2.80;;;1.33;;
11189;SDS011;5651;50.926;4.718;2022-09-16T03:36:46;6.00;;;1.75;;
11189;SDS011;5651;50.926;4.718;2022-09-16T03:39:17;5.47;;;1.30;;
11189;SDS011;5651;50.926;4.718;2022-09-16T03:41:43;7.72;;;1.40;;
11189;SDS011;5651;50.926;4.718;2022-09-16T03:44:09;4.28;;;1.30;;
11189;SDS011;5651;50.926;4.718;2022-09-16T03:46:35;3.72;;;1.45;;
11189;SDS011;5651;50.926;4.718;2022-09-16T03:49:00;7.30;;;1.90;;
11189;SDS011;5651;50.926;4.718;2022-09-16T03:51:26;7.90;;;2.33;;
11189;SDS011;5651;50.926;4.718;2022-09-16T03:53:52;4.28;;;1.30;;
11189;SDS011;5651;50.926;4.718;2022-09-16T03:56:19;3.72;;;1.30;;
11189;SDS011;5651;50.926;4.718;2022-09-16T03:58:46;7.72;;;2.05;;
11189;SDS011;5651;50.926;4.718;2022-09-16T04:01:13;7.70;;;1.75;;
11189;SDS011;5651;50.926;4.718;2022-09-16T04:03:39;6.97;;;1.77;;
11189;SDS011;5651;50.926;4.718;2022-09-16T04:06:05;4.35;;;1.25;;
11189;SDS011;5651;50.926;4.718;2022-09-16T04:08:31;7.13;;;1.70;;
11189;SDS011;5651;50.926;4.718;2022-09-16T04:10:58;8.50;;;1.48;;
11189;SDS011;5651;50.926;4.718;2022-09-16T04:13:29;9.48;;;1.92;;
11189;SDS011;5651;50.926;4.718;2022-09-16T04:15:56;4.43;;;1.40;;
11189;SDS011;5651;50.926;4.718;2022-09-16T04:18:22;5.15;;;1.40;;
11189;SDS011;5651;50.926;4.718;2022-09-16T04:20:48;7.43;;;1.42;;
11189;SDS011;5651;50.926;4.718;2022-09-16T04:23:13;4.75;;;2.20;;
11189;SDS011;5651;50.926;4.718;2022-09-16T04:25:39;7.90;;;1.48;;
11189;SDS011;5651;50.926;4.718;2022-09-16T04:28:08;5.68;;;1.58;;
11189;SDS011;5651;50.926;4.718;2022-09-16T04:30:33;3.65;;;1.30;;
11189;SDS011;5651;50.926;4.718;2022-09-16T04:33:01;5.82;;;1.40;;
11189;SDS011;5651;50.926;4.718;2022-09-16T04:35:27;5.00;;;1.40;;
11189;SDS011;5651;50.926;4.718;2022-09-16T04:37:52;5.75;;;1.30;;
11189;SDS011;5651;50.926;4.718;2022-09-16T04:40:18;9.45;;;2.15;;
11189;SDS011;5651;50.926;4.718;2022-09-16T04:42:48;4.97;;;1.35;;
11189;SDS011;5651;50.926;4.718;2022-09-16T04:45:14;5.95;;;1.45;;
11189;SDS011;5651;50.926;4.718;2022-09-16T04:47:41;8.60;;;1.42;;
11189;SDS011;5651;50.926;4.718;2022-09-16T04:50:07;4.43;;;1.50;;
11189;SDS011;5651;50.926;4.718;2022-09-16T04:52:33;3.65;;;1.17;;
11189;SDS011;5651;50.926;4.718;2022-09-16T04:54:58;7.25;;;1.40;;
11189;SDS011;5651;50.926;4.718;2022-09-16T04:57:24;6.70;;;1.40;;
11189;SDS011;5651;50.926;4.718;2022-09-16T04:59:50;5.70;;;1.88;;
11189;SDS011;5651;50.926;4.718;2022-09-16T05:02:16;9.02;;;1.88;;
11189;SDS011;5651;50.926;4.718;2022-09-16T05:04:41;8.48;;;1.23;;
11189;SDS011;5651;50.926;4.718;2022-09-16T05:07:07;3.88;;;1.00;;
11189;SDS011;5651;50.926;4.718;2022-09-16T05:09:33;6.15;;;1.15;;
11189;SDS011;5651;50.926;4.718;2022-09-16T05:11:59;5.32;;;1.17;;
11189;SDS011;5651;50.926;4.718;2022-09-16T05:14:25;7.63;;;1.25;;
11189;SDS011;5651;50.926;4.718;2022-09-16T05:16:51;5.38;;;1.83;;
11189;SDS011;5651;50.926;4.718;2022-09-16T05:19:18;3.42;;;0.98;;
11189;SDS011;5651;50.926;4.718;2022-09-16T05:21:44;3.30;;;1.10;;
11189;SDS011;5651;50.926;4.718;2022-09-16T05:24:10;2.28;;;0.90;;
11189;SDS011;5651;50.926;4.718;2022-09-16T05:26:38;5.68;;;1.10;;
11189;SDS011;5651;50.926;4.718;2022-09-16T05:29:07;3.13;;;0.95;;
11189;SDS011;5651;50.926;4.718;2022-09-16T05:31:36;5.82;;;1.08;;
11189;SDS011;5651;50.926;4.718;2022-09-16T05:34:05;4.40;;;1.58;;
11189;SDS011;5651;50.926;4.718;2022-09-16T05:36:35;4.20;;;0.82;;
11189;SDS011;5651;50.926;4.718;2022-09-16T05:39:03;4.70;;;1.00;;
11189;SDS011;5651;50.926;4.718;2022-09-16T05:41:29;2.40;;;0.90;;
11189;SDS011;5651;50.926;4.718;2022-09-16T05:43:58;4.55;;;0.90;;
11189;SDS011;5651;50.926;4.718;2022-09-16T05:46:25;2.58;;;0.80;;
11189;SDS011;5651;50.926;4.718;2022-09-16T05:48:52;5.97;;;0.90;;
11189;SDS011;5651;50.926;4.718;2022-09-16T05:51:20;1.95;;;0.60;;
11189;SDS011;5651;50.926;4.718;2022-09-16T05:53:47;2.55;;;0.77;;
11189;SDS011;5651;50.926;4.718;2022-09-16T05:56:15;5.28;;;0.95;;
11189;SDS011;5651;50.926;4.718;2022-09-16T05:58:54;2.10;;;0.93;;
11189;SDS011;5651;50.926;4.718;2022-09-16T06:01:23;7.18;;;1.52;;
11189;SDS011;5651;50.926;4.718;2022-09-16T06:03:51;2.22;;;0.85;;
11189;SDS011;5651;50.926;4.718;2022-09-16T06:08:51;5.90;;;1.25;;
11189;SDS011;5651;50.926;4.718;2022-09-16T06:11:19;3.15;;;0.95;;
11189;SDS011;5651;50.926;4.718;2022-09-16T06:13:45;2.78;;;1.35;;
11189;SDS011;5651;50.926;4.718;2022-09-16T06:16:11;2.83;;;0.95;;
11189;SDS011;5651;50.926;4.718;2022-09-16T06:18:39;6.35;;;1.05;;
11189;SDS011;5651;50.926;4.718;2022-09-16T06:21:09;3.28;;;1.00;;
11189;SDS011;5651;50.926;4.718;2022-09-16T06:23:36;2.95;;;1.30;;
11189;SDS011;5651;50.926;4.718;2022-09-16T06:26:05;2.67;;;0.95;;
11189;SDS011;5651;50.926;4.718;2022-09-16T06:28:32;8.10;;;1.20;;
11189;SDS011;5651;50.926;4.718;2022-09-16T06:31:02;4.00;;;1.20;;
11189;SDS011;5651;50.926;4.718;2022-09-16T06:33:33;5.85;;;1.50;;
11189;SDS011;5651;50.926;4.718;2022-09-16T06:36:07;5.30;;;1.30;;
11189;SDS011;5651;50.926;4.718;2022-09-16T06:38:44;3.58;;;1.67;;
11189;SDS011;5651;50.926;4.718;2022-09-16T06:41:11;6.18;;;1.63;;
11189;SDS011;5651;50.926;4.718;2022-09-16T06:43:38;3.05;;;1.20;;
11189;SDS011;5651;50.926;4.718;2022-09-16T06:46:05;5.10;;;1.48;;
11189;SDS011;5651;50.926;4.718;2022-09-16T06:48:43;6.07;;;1.40;;
11189;SDS011;5651;50.926;4.718;2022-09-16T06:51:12;4.03;;;1.10;;
11189;SDS011;5651;50.926;4.718;2022-09-16T06:53:40;4.05;;;1.17;;
11189;SDS011;5651;50.926;4.718;2022-09-16T06:56:08;8.68;;;1.27;;
11189;SDS011;5651;50.926;4.718;2022-09-16T06:58:37;3.97;;;1.58;;
11189;SDS011;5651;50.926;4.718;2022-09-16T07:01:11;9.40;;;1.70;;
11189;SDS011;5651;50.926;4.718;2022-09-16T07:03:42;3.50;;;1.23;;
11189;SDS011;5651;50.926;4.718;2022-09-16T07:06:10;5.47;;;1.67;;
11189;SDS011;5651;50.926;4.718;2022-09-16T07:08:37;4.90;;;1.42;;
11189;SDS011;5651;50.926;4.718;2022-09-16T07:11:04;4.10;;;1.45;;
11189;SDS011;5651;50.926;4.718;2022-09-16T07:13:30;6.25;;;1.00;;
11189;SDS011;5651;50.926;4.718;2022-09-16T07:16:04;6.15;;;1.30;;
11189;SDS011;5651;50.926;4.718;2022-09-16T07:18:32;4.65;;;1.20;;
11189;SDS011;5651;50.926;4.718;2022-09-16T07:23:57;4.40;;;0.90;;
11189;SDS011;5651;50.926;4.718;2022-09-16T07:26:25;2.95;;;1.40;;
11189;SDS011;5651;50.926;4.718;2022-09-16T07:28:53;4.68;;;0.90;;
11189;SDS011;5651;50.926;4.718;2022-09-16T07:31:21;3.10;;;1.20;;
11189;SDS011;5651;50.926;4.718;2022-09-16T07:33:51;2.38;;;1.00;;
11189;SDS011;5651;50.926;4.718;2022-09-16T07:36:20;7.18;;;1.33;;
11189;SDS011;5651;50.926;4.718;2022-09-16T07:38:47;6.05;;;1.38;;
11189;SDS011;5651;50.926;4.718;2022-09-16T07:41:15;5.68;;;1.00;;
11189;SDS011;5651;50.926;4.718;2022-09-16T07:43:45;6.70;;;1.17;;
11189;SDS011;5651;50.926;4.718;2022-09-16T07:46:12;5.15;;;0.98;;
11189;SDS011;5651;50.926;4.718;2022-09-16T07:48:41;3.90;;;1.30;;
11189;SDS011;5651;50.926;4.718;2022-09-16T07:51:09;4.78;;;1.35;;
11189;SDS011;5651;50.926;4.718;2022-09-16T07:53:36;7.30;;;1.42;;
11189;SDS011;5651;50.926;4.718;2022-09-16T07:56:08;6.10;;;1.30;;
11189;SDS011;5651;50.926;4.718;2022-09-16T07:58:39;5.82;;;1.73;;
11189;SDS011;5651;50.926;4.718;2022-09-16T08:01:06;5.85;;;1.38;;
11189;SDS011;5651;50.926;4.718;2022-09-16T08:03:36;4.57;;;1.63;;
11189;SDS011;5651;50.926;4.718;2022-09-16T08:06:04;5.85;;;1.50;;
11189;SDS011;5651;50.926;4.718;2022-09-16T08:08:31;3.35;;;1.48;;
11189;SDS011;5651;50.926;4.718;2022-09-16T08:10:58;6.55;;;2.33;;
11189;SDS011;5651;50.926;4.718;2022-09-16T08:13:26;5.57;;;1.85;;
11189;SDS011;5651;50.926;4.718;2022-09-16T08:15:53;10.07;;;2.13;;
11189;SDS011;5651;50.926;4.718;2022-09-16T08:18:20;4.43;;;1.80;;
11189;SDS011;5651;50.926;4.718;2022-09-16T08:20:46;6.22;;;1.90;;
11189;SDS011;5651;50.926;4.718;2022-09-16T08:23:12;7.05;;;2.53;;
11189;SDS011;5651;50.926;4.718;2022-09-16T08:25:39;4.72;;;2.10;;
11189;SDS011;5651;50.926;4.718;2022-09-16T08:28:10;10.18;;;3.00;;
11189;SDS011;5651;50.926;4.718;2022-09-16T08:30:37;3.97;;;2.10;;
11189;SDS011;5651;50.926;4.718;2022-09-16T08:33:03;6.82;;;2.28;;
11189;SDS011;5651;50.926;4.718;2022-09-16T08:35:29;6.05;;;1.95;;
11189;SDS011;5651;50.926;4.718;2022-09-16T08:37:55;4.80;;;1.58;;
11189;SDS011;5651;50.926;4.718;2022-09-16T08:40:22;6.78;;;2.40;;
11189;SDS011;5651;50.926;4.718;2022-09-16T08:47:54;4.82;;;1.80;;
11189;SDS011;5651;50.926;4.718;2022-09-16T08:50:30;9.73;;;2.20;;
11189;SDS011;5651;50.926;4.718;2022-09-16T08:52:59;6.15;;;1.60;;
11189;SDS011;5651;50.926;4.718;2022-09-16T08:55:29;5.72;;;1.77;;
11189;SDS011;5651;50.926;4.718;2022-09-16T08:58:06;5.85;;;1.85;;
11189;SDS011;5651;50.926;4.718;2022-09-16T09:00:42;4.47;;;1.52;;
11189;SDS011;5651;50.926;4.718;2022-09-16T09:03:21;5.93;;;1.30;;
11189;SDS011;5651;50.926;4.718;2022-09-16T09:05:54;4.70;;;1.30;;
11189;SDS011;5651;50.926;4.718;2022-09-16T09:08:28;8.25;;;1.60;;
11189;SDS011;5651;50.926;4.718;2022-09-16T09:11:14;4.47;;;1.15;;
11189;SDS011;5651;50.926;4.718;2022-09-16T09:21:53;3.85;;;1.63;;
11189;SDS011;5651;50.926;4.718;2022-09-16T09:27:36;7.65;;;1.80;;
11189;SDS011;5651;50.926;4.718;2022-09-16T09:30:25;5.55;;;1.73;;
11189;SDS011;5651;50.926;4.718;2022-09-16T09:35:46;5.80;;;1.20;;
11189;SDS011;5651;50.926;4.718;2022-09-16T09:38:31;6.65;;;0.90;;
11189;SDS011;5651;50.926;4.718;2022-09-16T09:41:17;5.28;;;1.42;;
11189;SDS011;5651;50.926;4.718;2022-09-16T09:46:30;3.30;;;1.30;;
11189;SDS011;5651;50.926;4.718;2022-09-16T09:49:06;2.15;;;0.80;;
11189;SDS011;5651;50.926;4.718;2022-09-16T09:51:38;3.42;;;0.77;;
11189;SDS011;5651;50.926;4.718;2022-09-16T09:56:55;4.03;;;0.75;;
11189;SDS011;5651;50.926;4.718;2022-09-16T10:02:15;4.43;;;1.10;;
11189;SDS011;5651;50.926;4.718;2022-09-16T10:04:42;5.13;;;1.15;;
11189;SDS011;5651;50.926;4.718;2022-09-16T10:07:08;4.68;;;1.05;;
11189;SDS011;5651;50.926;4.718;2022-09-16T10:09:37;3.72;;;0.90;;
11189;SDS011;5651;50.926;4.718;2022-09-16T10:12:24;2.38;;;0.77;;
11189;SDS011;5651;50.926;4.718;2022-09-16T10:14:51;4.93;;;1.00;;
11189;SDS011;5651;50.926;4.718;2022-09-16T10:17:16;1.10;;;0.70;;
11189;SDS011;5651;50.926;4.718;2022-09-16T10:19:54;4.78;;;1.00;;
11189;SDS011;5651;50.926;4.718;2022-09-16T10:22:27;5.15;;;0.98;;
11189;SDS011;5651;50.926;4.718;2022-09-16T10:24:57;2.95;;;0.82;;
11189;SDS011;5651;50.926;4.718;2022-09-16T10:27:29;6.47;;;1.58;;
11189;SDS011;5651;50.926;4.718;2022-09-16T10:30:32;6.88;;;1.13;;
11189;SDS011;5651;50.926;4.718;2022-09-16T10:33:04;3.33;;;0.90;;
11189;SDS011;5651;50.926;4.718;2022-09-16T10:35:37;1.85;;;1.10;;
11189;SDS011;5651;50.926;4.718;2022-09-16T10:40:36;2.58;;;0.60;;
11189;SDS011;5651;50.926;4.718;2022-09-16T10:43:12;2.50;;;1.15;;
11189;SDS011;5651;50.926;4.718;2022-09-16T10:45:49;2.42;;;0.70;;
11189;SDS011;5651;50.926;4.718;2022-09-16T10:48:18;2.75;;;0.70;;
11189;SDS011;5651;50.926;4.718;2022-09-16T10:53:34;4.07;;;0.82;;
11189;SDS011;5651;50.926;4.718;2022-09-16T10:56:03;1.02;;;0.60;;
11189;SDS011;5651;50.926;4.718;2022-09-16T10:58:30;4.07;;;1.08;;
11189;SDS011;5651;50.926;4.718;2022-09-16T11:35:38;3.05;;;0.80;;
11189;SDS011;5651;50.926;4.718;2022-09-16T11:43:39;2.17;;;0.57;;
11189;SDS011;5651;50.926;4.718;2022-09-16T11:57:36;2.33;;;0.60;;
11189;SDS011;5651;50.926;4.718;2022-09-16T12:00:09;3.22;;;0.77;;
11189;SDS011;5651;50.926;4.718;2022-09-16T12:02:50;2.88;;;1.65;;
11189;SDS011;5651;50.926;4.718;2022-09-16T12:05:24;2.92;;;0.70;;
11189;SDS011;5651;50.926;4.718;2022-09-16T12:10:24;4.53;;;0.75;;
11189;SDS011;5651;50.926;4.718;2022-09-16T12:13:00;4.95;;;1.00;;
11189;SDS011;5651;50.926;4.718;2022-09-16T12:15:43;1.67;;;0.80;;
11189;SDS011;5651;50.926;4.718;2022-09-16T12:21:21;2.20;;;0.70;;
11189;SDS011;5651;50.926;4.718;2022-09-16T12:23:54;1.35;;;0.82;;
11189;SDS011;5651;50.926;4.718;2022-09-16T12:26:25;2.70;;;0.70;;
11189;SDS011;5651;50.926;4.718;2022-09-16T12:34:09;3.83;;;1.58;;
11189;SDS011;5651;50.926;4.718;2022-09-16T12:36:40;3.65;;;0.95;;
11189;SDS011;5651;50.926;4.718;2022-09-16T12:39:10;3.35;;;0.70;;
11189;SDS011;5651;50.926;4.718;2022-09-16T12:44:41;8.57;;;1.60;;
11189;SDS011;5651;50.926;4.718;2022-09-16T12:56:04;4.72;;;0.60;;
11189;SDS011;5651;50.926;4.718;2022-09-16T13:03:46;2.88;;;1.42;;
11189;SDS011;5651;50.926;4.718;2022-09-16T13:06:26;1.63;;;0.95;;
11189;SDS011;5651;50.926;4.718;2022-09-16T13:08:54;2.75;;;1.30;;
11189;SDS011;5651;50.926;4.718;2022-09-16T13:11:22;7.90;;;1.90;;
11189;SDS011;5651;50.926;4.718;2022-09-16T13:13:52;5.47;;;0.70;;
11189;SDS011;5651;50.926;4.718;2022-09-16T13:16:33;2.80;;;0.65;;
11189;SDS011;5651;50.926;4.718;2022-09-16T13:24:57;2.78;;;0.90;;
11189;SDS011;5651;50.926;4.718;2022-09-16T13:27:32;4.72;;;2.20;;
11189;SDS011;5651;50.926;4.718;2022-09-16T13:32:39;6.28;;;1.80;;
11189;SDS011;5651;50.926;4.718;2022-09-16T13:37:52;2.85;;;1.35;;
11189;SDS011;5651;50.926;4.718;2022-09-16T13:40:26;2.90;;;0.70;;
11189;SDS011;5651;50.926;4.718;2022-09-16T13:43:10;2.83;;;0.80;;
11189;SDS011;5651;50.926;4.718;2022-09-16T13:50:52;5.45;;;0.82;;
11189;SDS011;5651;50.926;4.718;2022-09-16T13:53:31;5.03;;;1.33;;
11189;SDS011;5651;50.926;4.718;2022-09-16T13:56:05;2.92;;;0.80;;
11189;SDS011;5651;50.926;4.718;2022-09-16T13:58:57;1.95;;;0.82;;
11189;SDS011;5651;50.926;4.718;2022-09-16T14:12:21;2.53;;;1.23;;
11189;SDS011;5651;50.926;4.718;2022-09-16T14:14:55;4.20;;;1.52;;
11189;SDS011;5651;50.926;4.718;2022-09-16T14:17:25;6.38;;;1.55;;
11189;SDS011;5651;50.926;4.718;2022-09-16T14:19:57;5.22;;;0.93;;
11189;SDS011;5651;50.926;4.718;2022-09-16T14:22:24;3.70;;;1.13;;
11189;SDS011;5651;50.926;4.718;2022-09-16T14:24:52;2.22;;;1.00;;
11189;SDS011;5651;50.926;4.718;2022-09-16T14:27:29;3.28;;;1.30;;
11189;SDS011;5651;50.926;4.718;2022-09-16T14:30:05;2.53;;;0.77;;
11189;SDS011;5651;50.926;4.718;2022-09-16T14:32:37;4.38;;;0.88;;
11189;SDS011;5651;50.926;4.718;2022-09-16T14:37:58;5.88;;;0.90;;
11189;SDS011;5651;50.926;4.718;2022-09-16T14:40:27;3.47;;;0.57;;
11189;SDS011;5651;50.926;4.718;2022-09-16T14:42:58;1.30;;;0.40;;
11189;SDS011;5651;50.926;4.718;2022-09-16T14:45:29;0.95;;;0.30;;
11189;SDS011;5651;50.926;4.718;2022-09-16T14:47:56;2.22;;;0.57;;
11189;SDS011;5651;50.926;4.718;2022-09-16T14:50:29;1.08;;;0.35;;
11189;SDS011;5651;50.926;4.718;2022-09-16T14:53:01;2.65;;;0.50;;
11189;SDS011;5651;50.926;4.718;2022-09-16T14:55:29;1.02;;;0.40;;
11189;SDS011;5651;50.926;4.718;2022-09-16T14:57:57;1.58;;;0.50;;
11189;SDS011;5651;50.926;4.718;2022-09-16T15:00:28;2.15;;;0.70;;
11189;SDS011;5651;50.926;4.718;2022-09-16T15:06:30;1.80;;;0.45;;
11189;SDS011;5651;50.926;4.718;2022-09-16T15:09:21;1.58;;;0.47;;
11189;SDS011;5651;50.926;4.718;2022-09-16T15:11:53;0.47;;;0.40;;
11189;SDS011;5651;50.926;4.718;2022-09-16T15:14:21;3.25;;;0.50;;
11189;SDS011;5651;50.926;4.718;2022-09-16T15:16:50;1.42;;;0.30;;
11189;SDS011;5651;50.926;4.718;2022-09-16T15:19:22;1.02;;;0.30;;
11189;SDS011;5651;50.926;4.718;2022-09-16T15:21:51;2.35;;;0.77;;
11189;SDS011;5651;50.926;4.718;2022-09-16T15:24:23;3.40;;;0.50;;
11189;SDS011;5651;50.926;4.718;2022-09-16T15:26:53;1.15;;;0.35;;
11189;SDS011;5651;50.926;4.718;2022-09-16T15:31:49;1.75;;;1.05;;
11189;SDS011;5651;50.926;4.718;2022-09-16T15:34:19;0.40;;;0.35;;
11189;SDS011;5651;50.926;4.718;2022-09-16T15:36:51;1.17;;;0.20;;
11189;SDS011;5651;50.926;4.718;2022-09-16T15:47:30;2.33;;;0.60;;
11189;SDS011;5651;50.926;4.718;2022-09-16T15:49:59;1.27;;;0.55;;
11189;SDS011;5651;50.926;4.718;2022-09-16T15:52:31;1.98;;;0.57;;
11189;SDS011;5651;50.926;4.718;2022-09-16T15:55:00;1.20;;;0.30;;
11189;SDS011;5651;50.926;4.718;2022-09-16T15:57:30;1.40;;;0.35;;
11189;SDS011;5651;50.926;4.718;2022-09-16T16:00:06;2.80;;;0.73;;
11189;SDS011;5651;50.926;4.718;2022-09-16T16:05:05;2.08;;;0.70;;
11189;SDS011;5651;50.926;4.718;2022-09-16T16:07:36;3.05;;;1.50;;
11189;SDS011;5651;50.926;4.718;2022-09-16T16:12:49;2.67;;;0.60;;
11189;SDS011;5651;50.926;4.718;2022-09-16T16:15:23;4.32;;;0.63;;
11189;SDS011;5651;50.926;4.718;2022-09-16T16:17:50;2.60;;;0.68;;
11189;SDS011;5651;50.926;4.718;2022-09-16T16:20:18;1.80;;;0.45;;
11189;SDS011;5651;50.926;4.718;2022-09-16T16:22:46;1.42;;;0.47;;
11189;SDS011;5651;50.926;4.718;2022-09-16T16:25:12;5.28;;;0.80;;
11189;SDS011;5651;50.926;4.718;2022-09-16T16:27:38;2.92;;;0.73;;
11189;SDS011;5651;50.926;4.718;2022-09-16T16:30:04;5.97;;;0.63;;
11189;SDS011;5651;50.926;4.718;2022-09-16T16:32:31;3.15;;;0.95;;
11189;SDS011;5651;50.926;4.718;2022-09-16T16:34:59;3.53;;;0.95;;
11189;SDS011;5651;50.926;4.718;2022-09-16T16:37:25;7.85;;;0.98;;
11189;SDS011;5651;50.926;4.718;2022-09-16T16:39:52;6.97;;;1.30;;
11189;SDS011;5651;50.926;4.718;2022-09-16T16:42:18;7.68;;;1.20;;
11189;SDS011;5651;50.926;4.718;2022-09-16T16:44:45;5.63;;;1.42;;
11189;SDS011;5651;50.926;4.718;2022-09-16T16:47:11;4.65;;;1.08;;
11189;SDS011;5651;50.926;4.718;2022-09-16T16:49:37;3.15;;;0.63;;
11189;SDS011;5651;50.926;4.718;2022-09-16T16:52:03;3.63;;;1.13;;
11189;SDS011;5651;50.926;4.718;2022-09-16T16:54:30;4.20;;;0.95;;
11189;SDS011;5651;50.926;4.718;2022-09-16T16:56:56;5.57;;;1.08;;
11189;SDS011;5651;50.926;4.718;2022-09-16T16:59:23;11.07;;;2.40;;
11189;SDS011;5651;50.926;4.718;2022-09-16T17:01:50;3.55;;;1.00;;
11189;SDS011;5651;50.926;4.718;2022-09-16T17:04:17;10.07;;;1.73;;
11189;SDS011;5651;50.926;4.718;2022-09-16T17:06:43;9.88;;;1.88;;
11189;SDS011;5651;50.926;4.718;2022-09-16T17:09:09;3.10;;;0.90;;
11189;SDS011;5651;50.926;4.718;2022-09-16T17:11:36;5.72;;;0.88;;
11189;SDS011;5651;50.926;4.718;2022-09-16T17:14:04;6.10;;;1.20;;
11189;SDS011;5651;50.926;4.718;2022-09-16T17:16:31;3.72;;;1.10;;
11189;SDS011;5651;50.926;4.718;2022-09-16T17:18:58;2.05;;;0.85;;
11189;SDS011;5651;50.926;4.718;2022-09-16T17:21:26;3.10;;;0.95;;
11189;SDS011;5651;50.926;4.718;2022-09-16T17:23:54;2.55;;;0.90;;
11189;SDS011;5651;50.926;4.718;2022-09-16T17:26:21;4.53;;;0.80;;
11189;SDS011;5651;50.926;4.718;2022-09-16T17:28:47;3.92;;;0.90;;
11189;SDS011;5651;50.926;4.718;2022-09-16T17:31:16;3.75;;;0.90;;
11189;SDS011;5651;50.926;4.718;2022-09-16T17:33:48;2.85;;;0.90;;
11189;SDS011;5651;50.926;4.718;2022-09-16T17:36:18;5.30;;;1.35;;
11189;SDS011;5651;50.926;4.718;2022-09-16T17:38:46;3.63;;;0.90;;
11189;SDS011;5651;50.926;4.718;2022-09-16T17:41:14;3.05;;;0.90;;
11189;SDS011;5651;50.926;4.718;2022-09-16T17:43:41;6.93;;;1.02;;
11189;SDS011;5651;50.926;4.718;2022-09-16T17:46:12;3.30;;;1.67;;
11189;SDS011;5651;50.926;4.718;2022-09-16T17:48:41;6.20;;;1.20;;
11189;SDS011;5651;50.926;4.718;2022-09-16T17:51:07;2.83;;;0.90;;
11189;SDS011;5651;50.926;4.718;2022-09-16T17:53:33;6.65;;;1.05;;
11189;SDS011;5651;50.926;4.718;2022-09-16T17:56:00;8.32;;;1.88;;
11189;SDS011;5651;50.926;4.718;2022-09-16T17:58:28;3.15;;;1.10;;
11189;SDS011;5651;50.926;4.718;2022-09-16T18:00:54;5.68;;;1.83;;
11189;SDS011;5651;50.926;4.718;2022-09-16T18:03:19;6.50;;;1.30;;
11189;SDS011;5651;50.926;4.718;2022-09-16T18:05:45;6.63;;;1.35;;
11189;SDS011;5651;50.926;4.718;2022-09-16T18:08:11;3.63;;;0.80;;
11189;SDS011;5651;50.926;4.718;2022-09-16T18:10:36;4.00;;;1.05;;
11189;SDS011;5651;50.926;4.718;2022-09-16T18:13:02;2.97;;;0.90;;
11189;SDS011;5651;50.926;4.718;2022-09-16T18:15:28;4.60;;;1.10;;
11189;SDS011;5651;50.926;4.718;2022-09-16T18:17:54;7.25;;;1.25;;
11189;SDS011;5651;50.926;4.718;2022-09-16T18:20:20;5.53;;;1.20;;
11189;SDS011;5651;50.926;4.718;2022-09-16T18:22:46;5.82;;;1.45;;
11189;SDS011;5651;50.926;4.718;2022-09-16T18:25:13;4.57;;;1.48;;
11189;SDS011;5651;50.926;4.718;2022-09-16T18:27:38;5.22;;;0.98;;
11189;SDS011;5651;50.926;4.718;2022-09-16T18:30:04;7.75;;;1.30;;
11189;SDS011;5651;50.926;4.718;2022-09-16T18:32:31;6.32;;;1.23;;
11189;SDS011;5651;50.926;4.718;2022-09-16T18:34:56;4.32;;;1.23;;
11189;SDS011;5651;50.926;4.718;2022-09-16T18:37:22;2.97;;;1.00;;
11189;SDS011;5651;50.926;4.718;2022-09-16T18:39:48;2.97;;;1.23;;
11189;SDS011;5651;50.926;4.718;2022-09-16T18:42:14;4.93;;;1.05;;
11189;SDS011;5651;50.926;4.718;2022-09-16T18:44:39;3.60;;;1.50;;
11189;SDS011;5651;50.926;4.718;2022-09-16T18:47:05;4.05;;;1.00;;
11189;SDS011;5651;50.926;4.718;2022-09-16T18:49:31;6.35;;;1.73;;
11189;SDS011;5651;50.926;4.718;2022-09-16T18:51:56;4.50;;;1.17;;
11189;SDS011;5651;50.926;4.718;2022-09-16T18:54:23;5.15;;;0.95;;
11189;SDS011;5651;50.926;4.718;2022-09-16T18:56:53;6.28;;;1.15;;
11189;SDS011;5651;50.926;4.718;2022-09-16T18:59:24;4.50;;;0.98;;
11189;SDS011;5651;50.926;4.718;2022-09-16T19:01:53;3.17;;;1.00;;